sensor_id;sensor_type;location;lat;lon;timestamp;P1;durP1;ratioP1;P2;durP2;ratioP2
79583;SDS011;69053;57.338;18.700;2023-07-31T00:00:16;3.80;;;1.80;;
79583;SDS011;69053;57.338;18.700;2023-07-31T00:03:16;3.17;;;1.67;;
79583;SDS011;69053;57.338;18.700;2023-07-31T00:06:17;2.90;;;1.73;;
79583;SDS011;69053;57.338;18.700;2023-07-31T00:09:18;4.82;;;2.00;;
79583;SDS011;69053;57.338;18.700;2023-07-31T00:12:18;4.82;;;1.77;;
79583;SDS011;69053;57.338;18.700;2023-07-31T00:15:19;3.85;;;1.83;;
79583;SDS011;69053;57.338;18.700;2023-07-31T00:18:21;5.22;;;1.83;;
79583;SDS011;69053;57.338;18.700;2023-07-31T00:21:39;2.55;;;1.50;;
79583;SDS011;69053;57.338;18.700;2023-07-31T00:24:40;4.00;;;1.83;;
79583;SDS011;69053;57.338;18.700;2023-07-31T00:27:40;4.68;;;1.60;;
79583;SDS011;69053;57.338;18.700;2023-07-31T00:30:44;4.90;;;1.88;;
79583;SDS011;69053;57.338;18.700;2023-07-31T00:33:44;5.15;;;1.80;;
79583;SDS011;69053;57.338;18.700;2023-07-31T00:36:45;2.55;;;1.77;;
79583;SDS011;69053;57.338;18.700;2023-07-31T00:39:46;5.10;;;1.70;;
79583;SDS011;69053;57.338;18.700;2023-07-31T00:42:46;3.65;;;1.80;;
79583;SDS011;69053;57.338;18.700;2023-07-31T00:45:47;3.75;;;2.08;;
79583;SDS011;69053;57.338;18.700;2023-07-31T00:48:48;6.45;;;2.08;;
79583;SDS011;69053;57.338;18.700;2023-07-31T00:51:49;3.45;;;1.65;;
79583;SDS011;69053;57.338;18.700;2023-07-31T00:54:50;4.75;;;1.90;;
79583;SDS011;69053;57.338;18.700;2023-07-31T00:57:50;4.95;;;1.88;;
79583;SDS011;69053;57.338;18.700;2023-07-31T01:00:52;3.83;;;2.03;;
79583;SDS011;69053;57.338;18.700;2023-07-31T01:03:53;4.80;;;2.03;;
79583;SDS011;69053;57.338;18.700;2023-07-31T01:16:25;4.75;;;1.63;;
79583;SDS011;69053;57.338;18.700;2023-07-31T01:19:26;5.45;;;2.20;;
79583;SDS011;69053;57.338;18.700;2023-07-31T01:25:50;3.83;;;1.95;;
79583;SDS011;69053;57.338;18.700;2023-07-31T01:29:17;3.67;;;1.85;;
79583;SDS011;69053;57.338;18.700;2023-07-31T01:32:26;4.40;;;1.92;;
79583;SDS011;69053;57.338;18.700;2023-07-31T01:35:28;3.97;;;2.03;;
79583;SDS011;69053;57.338;18.700;2023-07-31T01:38:30;3.85;;;2.00;;
79583;SDS011;69053;57.338;18.700;2023-07-31T01:41:31;7.72;;;3.40;;
79583;SDS011;69053;57.338;18.700;2023-07-31T01:44:32;3.05;;;2.10;;
79583;SDS011;69053;57.338;18.700;2023-07-31T01:47:34;4.40;;;2.10;;
79583;SDS011;69053;57.338;18.700;2023-07-31T01:50:34;5.32;;;2.10;;
79583;SDS011;69053;57.338;18.700;2023-07-31T01:53:35;5.72;;;2.20;;
79583;SDS011;69053;57.338;18.700;2023-07-31T01:56:36;3.58;;;2.45;;
79583;SDS011;69053;57.338;18.700;2023-07-31T01:59:36;7.88;;;2.45;;
79583;SDS011;69053;57.338;18.700;2023-07-31T02:02:37;5.43;;;2.45;;
79583;SDS011;69053;57.338;18.700;2023-07-31T02:05:47;5.45;;;2.40;;
79583;SDS011;69053;57.338;18.700;2023-07-31T02:08:48;7.03;;;2.05;;
79583;SDS011;69053;57.338;18.700;2023-07-31T02:11:49;3.63;;;1.90;;
79583;SDS011;69053;57.338;18.700;2023-07-31T02:14:50;5.32;;;2.30;;
79583;SDS011;69053;57.338;18.700;2023-07-31T02:17:51;5.93;;;3.03;;
79583;SDS011;69053;57.338;18.700;2023-07-31T02:20:51;4.63;;;2.42;;
79583;SDS011;69053;57.338;18.700;2023-07-31T02:23:52;5.50;;;2.30;;
79583;SDS011;69053;57.338;18.700;2023-07-31T02:26:53;3.70;;;2.00;;
79583;SDS011;69053;57.338;18.700;2023-07-31T02:29:54;4.13;;;2.08;;
79583;SDS011;69053;57.338;18.700;2023-07-31T02:32:55;4.60;;;2.05;;
79583;SDS011;69053;57.338;18.700;2023-07-31T02:35:55;4.18;;;2.10;;
79583;SDS011;69053;57.338;18.700;2023-07-31T02:38:56;5.25;;;1.92;;
79583;SDS011;69053;57.338;18.700;2023-07-31T02:41:57;4.85;;;2.05;;
79583;SDS011;69053;57.338;18.700;2023-07-31T02:44:57;2.70;;;2.03;;
79583;SDS011;69053;57.338;18.700;2023-07-31T02:47:58;6.15;;;2.58;;
79583;SDS011;69053;57.338;18.700;2023-07-31T02:50:59;5.57;;;2.13;;
79583;SDS011;69053;57.338;18.700;2023-07-31T02:54:06;4.75;;;2.28;;
79583;SDS011;69053;57.338;18.700;2023-07-31T02:57:10;4.18;;;2.25;;
79583;SDS011;69053;57.338;18.700;2023-07-31T03:00:11;4.35;;;2.80;;
79583;SDS011;69053;57.338;18.700;2023-07-31T03:03:12;3.63;;;2.17;;
79583;SDS011;69053;57.338;18.700;2023-07-31T03:06:15;5.53;;;2.70;;
79583;SDS011;69053;57.338;18.700;2023-07-31T03:09:15;8.75;;;2.35;;
79583;SDS011;69053;57.338;18.700;2023-07-31T03:12:16;5.65;;;2.50;;
79583;SDS011;69053;57.338;18.700;2023-07-31T03:15:16;6.55;;;2.80;;
79583;SDS011;69053;57.338;18.700;2023-07-31T03:18:17;5.22;;;2.20;;
79583;SDS011;69053;57.338;18.700;2023-07-31T03:21:18;5.90;;;3.13;;
79583;SDS011;69053;57.338;18.700;2023-07-31T03:24:18;3.95;;;2.08;;
79583;SDS011;69053;57.338;18.700;2023-07-31T03:27:19;5.20;;;2.33;;
79583;SDS011;69053;57.338;18.700;2023-07-31T03:30:19;5.85;;;2.30;;
79583;SDS011;69053;57.338;18.700;2023-07-31T03:33:20;4.40;;;1.95;;
79583;SDS011;69053;57.338;18.700;2023-07-31T03:36:20;4.47;;;2.10;;
79583;SDS011;69053;57.338;18.700;2023-07-31T03:39:21;6.15;;;2.05;;
79583;SDS011;69053;57.338;18.700;2023-07-31T03:42:22;3.95;;;1.80;;
79583;SDS011;69053;57.338;18.700;2023-07-31T03:45:22;3.33;;;1.90;;
79583;SDS011;69053;57.338;18.700;2023-07-31T03:48:23;1.83;;;1.38;;
79583;SDS011;69053;57.338;18.700;2023-07-31T03:51:23;2.83;;;1.60;;
79583;SDS011;69053;57.338;18.700;2023-07-31T03:54:24;3.53;;;1.45;;
79583;SDS011;69053;57.338;18.700;2023-07-31T03:57:25;1.90;;;1.45;;
79583;SDS011;69053;57.338;18.700;2023-07-31T04:00:26;2.95;;;1.63;;
79583;SDS011;69053;57.338;18.700;2023-07-31T04:03:27;2.95;;;1.45;;
79583;SDS011;69053;57.338;18.700;2023-07-31T04:06:27;3.13;;;1.55;;
79583;SDS011;69053;57.338;18.700;2023-07-31T04:09:28;3.55;;;1.63;;
79583;SDS011;69053;57.338;18.700;2023-07-31T04:12:28;3.53;;;1.58;;
79583;SDS011;69053;57.338;18.700;2023-07-31T04:15:29;3.88;;;1.60;;
79583;SDS011;69053;57.338;18.700;2023-07-31T04:18:29;2.33;;;1.70;;
79583;SDS011;69053;57.338;18.700;2023-07-31T04:21:32;3.90;;;1.60;;
79583;SDS011;69053;57.338;18.700;2023-07-31T04:24:33;3.47;;;1.67;;
79583;SDS011;69053;57.338;18.700;2023-07-31T04:27:33;4.70;;;2.00;;
79583;SDS011;69053;57.338;18.700;2023-07-31T04:30:34;3.67;;;1.98;;
79583;SDS011;69053;57.338;18.700;2023-07-31T04:33:34;2.88;;;1.73;;
79583;SDS011;69053;57.338;18.700;2023-07-31T04:36:35;3.35;;;1.45;;
79583;SDS011;69053;57.338;18.700;2023-07-31T04:39:36;4.68;;;1.88;;
79583;SDS011;69053;57.338;18.700;2023-07-31T04:42:36;3.03;;;1.40;;
79583;SDS011;69053;57.338;18.700;2023-07-31T04:45:37;2.58;;;1.13;;
79583;SDS011;69053;57.338;18.700;2023-07-31T04:48:38;4.32;;;1.92;;
79583;SDS011;69053;57.338;18.700;2023-07-31T04:51:38;5.78;;;1.70;;
79583;SDS011;69053;57.338;18.700;2023-07-31T04:54:38;2.50;;;1.27;;
79583;SDS011;69053;57.338;18.700;2023-07-31T04:57:39;2.47;;;1.30;;
79583;SDS011;69053;57.338;18.700;2023-07-31T05:00:40;2.85;;;1.27;;
79583;SDS011;69053;57.338;18.700;2023-07-31T05:03:40;2.20;;;1.27;;
79583;SDS011;69053;57.338;18.700;2023-07-31T05:06:41;2.28;;;1.20;;
79583;SDS011;69053;57.338;18.700;2023-07-31T05:09:41;4.00;;;1.33;;
79583;SDS011;69053;57.338;18.700;2023-07-31T05:12:42;3.25;;;1.55;;
79583;SDS011;69053;57.338;18.700;2023-07-31T05:15:43;4.72;;;1.67;;
79583;SDS011;69053;57.338;18.700;2023-07-31T05:18:43;5.03;;;1.52;;
79583;SDS011;69053;57.338;18.700;2023-07-31T05:21:43;4.38;;;1.88;;
79583;SDS011;69053;57.338;18.700;2023-07-31T05:24:44;2.83;;;1.60;;
79583;SDS011;69053;57.338;18.700;2023-07-31T05:27:45;2.20;;;1.30;;
79583;SDS011;69053;57.338;18.700;2023-07-31T05:30:45;3.88;;;1.85;;
79583;SDS011;69053;57.338;18.700;2023-07-31T05:33:46;5.35;;;2.05;;
79583;SDS011;69053;57.338;18.700;2023-07-31T05:36:46;3.38;;;1.48;;
79583;SDS011;69053;57.338;18.700;2023-07-31T05:39:47;2.25;;;1.17;;
79583;SDS011;69053;57.338;18.700;2023-07-31T05:42:48;2.92;;;1.40;;
79583;SDS011;69053;57.338;18.700;2023-07-31T05:45:48;5.18;;;2.55;;
79583;SDS011;69053;57.338;18.700;2023-07-31T05:48:49;2.47;;;1.15;;
79583;SDS011;69053;57.338;18.700;2023-07-31T05:51:49;3.78;;;1.42;;
79583;SDS011;69053;57.338;18.700;2023-07-31T05:54:50;3.88;;;1.40;;
79583;SDS011;69053;57.338;18.700;2023-07-31T05:57:51;3.63;;;1.50;;
79583;SDS011;69053;57.338;18.700;2023-07-31T06:00:52;2.55;;;1.45;;
79583;SDS011;69053;57.338;18.700;2023-07-31T06:03:52;2.38;;;1.45;;
79583;SDS011;69053;57.338;18.700;2023-07-31T06:06:53;3.22;;;1.65;;
79583;SDS011;69053;57.338;18.700;2023-07-31T06:09:56;3.67;;;1.60;;
79583;SDS011;69053;57.338;18.700;2023-07-31T06:13:02;4.72;;;1.33;;
79583;SDS011;69053;57.338;18.700;2023-07-31T06:16:04;2.63;;;1.40;;
79583;SDS011;69053;57.338;18.700;2023-07-31T06:19:06;2.25;;;1.75;;
79583;SDS011;69053;57.338;18.700;2023-07-31T06:22:07;3.13;;;1.30;;
79583;SDS011;69053;57.338;18.700;2023-07-31T06:25:08;5.88;;;1.65;;
79583;SDS011;69053;57.338;18.700;2023-07-31T06:28:08;3.33;;;1.30;;
79583;SDS011;69053;57.338;18.700;2023-07-31T06:31:09;2.30;;;1.30;;
79583;SDS011;69053;57.338;18.700;2023-07-31T06:34:10;1.98;;;1.05;;
79583;SDS011;69053;57.338;18.700;2023-07-31T06:37:10;3.03;;;1.13;;
79583;SDS011;69053;57.338;18.700;2023-07-31T06:40:14;2.65;;;1.13;;
79583;SDS011;69053;57.338;18.700;2023-07-31T06:43:14;5.03;;;1.20;;
79583;SDS011;69053;57.338;18.700;2023-07-31T06:46:15;2.05;;;1.20;;
79583;SDS011;69053;57.338;18.700;2023-07-31T06:49:23;1.83;;;1.60;;
79583;SDS011;69053;57.338;18.700;2023-07-31T06:52:24;2.83;;;2.08;;
79583;SDS011;69053;57.338;18.700;2023-07-31T06:55:25;2.55;;;1.45;;
79583;SDS011;69053;57.338;18.700;2023-07-31T06:58:26;3.03;;;1.42;;
79583;SDS011;69053;57.338;18.700;2023-07-31T07:01:27;3.03;;;1.33;;
79583;SDS011;69053;57.338;18.700;2023-07-31T07:04:28;3.03;;;1.48;;
79583;SDS011;69053;57.338;18.700;2023-07-31T07:07:29;2.92;;;1.20;;
79583;SDS011;69053;57.338;18.700;2023-07-31T07:10:29;1.80;;;1.00;;
79583;SDS011;69053;57.338;18.700;2023-07-31T07:13:30;2.80;;;1.25;;
79583;SDS011;69053;57.338;18.700;2023-07-31T08:58:03;5.47;;;1.40;;
79583;SDS011;69053;57.338;18.700;2023-07-31T09:01:09;2.90;;;1.17;;
79583;SDS011;69053;57.338;18.700;2023-07-31T09:04:29;3.60;;;1.00;;
79583;SDS011;69053;57.338;18.700;2023-07-31T09:07:47;2.40;;;0.80;;
79583;SDS011;69053;57.338;18.700;2023-07-31T09:10:54;3.90;;;0.80;;
79583;SDS011;69053;57.338;18.700;2023-07-31T09:20:18;1.77;;;0.70;;
79583;SDS011;69053;57.338;18.700;2023-07-31T09:27:00;1.27;;;0.40;;
79583;SDS011;69053;57.338;18.700;2023-07-31T09:33:09;2.67;;;0.82;;
79583;SDS011;69053;57.338;18.700;2023-07-31T09:39:22;2.38;;;0.95;;
79583;SDS011;69053;57.338;18.700;2023-07-31T09:50:05;3.58;;;1.10;;
79583;SDS011;69053;57.338;18.700;2023-07-31T09:53:10;2.47;;;1.05;;
79583;SDS011;69053;57.338;18.700;2023-07-31T09:56:12;2.78;;;1.33;;
79583;SDS011;69053;57.338;18.700;2023-07-31T09:59:26;1.80;;;0.57;;
79583;SDS011;69053;57.338;18.700;2023-07-31T10:23:24;3.58;;;0.90;;
79583;SDS011;69053;57.338;18.700;2023-07-31T10:27:02;2.80;;;0.90;;
79583;SDS011;69053;57.338;18.700;2023-07-31T10:33:38;2.50;;;0.80;;
79583;SDS011;69053;57.338;18.700;2023-07-31T10:40:27;2.55;;;0.70;;
79583;SDS011;69053;57.338;18.700;2023-07-31T10:43:42;2.20;;;0.80;;
79583;SDS011;69053;57.338;18.700;2023-07-31T10:47:07;0.85;;;0.52;;
79583;SDS011;69053;57.338;18.700;2023-07-31T10:50:22;2.67;;;0.90;;
79583;SDS011;69053;57.338;18.700;2023-07-31T10:53:49;3.20;;;0.70;;
79583;SDS011;69053;57.338;18.700;2023-07-31T10:57:32;2.33;;;0.65;;
79583;SDS011;69053;57.338;18.700;2023-07-31T11:11:04;1.85;;;0.60;;
79583;SDS011;69053;57.338;18.700;2023-07-31T11:14:12;2.65;;;0.82;;
79583;SDS011;69053;57.338;18.700;2023-07-31T11:17:15;3.08;;;0.60;;
79583;SDS011;69053;57.338;18.700;2023-07-31T11:20:15;3.65;;;0.75;;
79583;SDS011;69053;57.338;18.700;2023-07-31T11:23:32;2.65;;;0.73;;
79583;SDS011;69053;57.338;18.700;2023-07-31T11:29:36;3.33;;;0.75;;
79583;SDS011;69053;57.338;18.700;2023-07-31T11:32:37;2.35;;;0.50;;
79583;SDS011;69053;57.338;18.700;2023-07-31T11:38:51;3.13;;;0.68;;
79583;SDS011;69053;57.338;18.700;2023-07-31T11:42:15;1.92;;;0.57;;
79583;SDS011;69053;57.338;18.700;2023-07-31T11:45:19;1.95;;;0.50;;
79583;SDS011;69053;57.338;18.700;2023-07-31T11:48:22;1.92;;;0.55;;
79583;SDS011;69053;57.338;18.700;2023-07-31T11:51:50;3.20;;;0.68;;
79583;SDS011;69053;57.338;18.700;2023-07-31T12:02:02;2.58;;;0.75;;
79583;SDS011;69053;57.338;18.700;2023-07-31T12:05:18;4.28;;;0.73;;
79583;SDS011;69053;57.338;18.700;2023-07-31T12:08:26;2.17;;;0.80;;
79583;SDS011;69053;57.338;18.700;2023-07-31T12:11:44;5.78;;;0.82;;
79583;SDS011;69053;57.338;18.700;2023-07-31T12:14:50;3.58;;;1.20;;
79583;SDS011;69053;57.338;18.700;2023-07-31T12:17:51;3.45;;;0.80;;
79583;SDS011;69053;57.338;18.700;2023-07-31T12:20:59;2.28;;;0.88;;
79583;SDS011;69053;57.338;18.700;2023-07-31T12:24:01;1.23;;;0.68;;
79583;SDS011;69053;57.338;18.700;2023-07-31T12:27:11;3.17;;;0.80;;
79583;SDS011;69053;57.338;18.700;2023-07-31T12:30:29;2.30;;;0.60;;
79583;SDS011;69053;57.338;18.700;2023-07-31T13:03:48;2.35;;;0.85;;
79583;SDS011;69053;57.338;18.700;2023-07-31T13:06:50;3.47;;;0.52;;
79583;SDS011;69053;57.338;18.700;2023-07-31T13:13:31;3.80;;;0.93;;
79583;SDS011;69053;57.338;18.700;2023-07-31T13:16:32;3.83;;;0.63;;
79583;SDS011;69053;57.338;18.700;2023-07-31T13:19:33;2.60;;;0.70;;
79583;SDS011;69053;57.338;18.700;2023-07-31T13:22:36;2.05;;;0.57;;
79583;SDS011;69053;57.338;18.700;2023-07-31T13:28:56;3.65;;;1.00;;
79583;SDS011;69053;57.338;18.700;2023-07-31T13:32:24;2.40;;;0.95;;
79583;SDS011;69053;57.338;18.700;2023-07-31T13:35:40;3.25;;;0.70;;
79583;SDS011;69053;57.338;18.700;2023-07-31T13:55:40;4.25;;;0.70;;
79583;SDS011;69053;57.338;18.700;2023-07-31T14:05:02;5.63;;;1.27;;
79583;SDS011;69053;57.338;18.700;2023-07-31T14:08:03;2.95;;;0.68;;
79583;SDS011;69053;57.338;18.700;2023-07-31T14:11:17;3.38;;;0.90;;
79583;SDS011;69053;57.338;18.700;2023-07-31T14:14:36;1.65;;;0.35;;
79583;SDS011;69053;57.338;18.700;2023-07-31T14:17:36;3.53;;;0.60;;
79583;SDS011;69053;57.338;18.700;2023-07-31T14:26:50;2.70;;;0.60;;
79583;SDS011;69053;57.338;18.700;2023-07-31T14:29:53;3.17;;;0.80;;
79583;SDS011;69053;57.338;18.700;2023-07-31T14:32:54;4.65;;;0.68;;
79583;SDS011;69053;57.338;18.700;2023-07-31T14:36:08;4.30;;;1.08;;
79583;SDS011;69053;57.338;18.700;2023-07-31T14:39:10;3.35;;;0.73;;
79583;SDS011;69053;57.338;18.700;2023-07-31T14:42:10;6.13;;;1.15;;
79583;SDS011;69053;57.338;18.700;2023-07-31T14:45:14;5.10;;;1.00;;
79583;SDS011;69053;57.338;18.700;2023-07-31T14:55:03;3.13;;;0.80;;
79583;SDS011;69053;57.338;18.700;2023-07-31T14:58:16;2.75;;;0.82;;
79583;SDS011;69053;57.338;18.700;2023-07-31T15:01:18;5.00;;;1.23;;
79583;SDS011;69053;57.338;18.700;2023-07-31T15:04:18;4.10;;;0.90;;
79583;SDS011;69053;57.338;18.700;2023-07-31T15:07:19;4.82;;;0.82;;
79583;SDS011;69053;57.338;18.700;2023-07-31T15:10:22;3.42;;;0.93;;
79583;SDS011;69053;57.338;18.700;2023-07-31T15:13:23;2.83;;;0.75;;
79583;SDS011;69053;57.338;18.700;2023-07-31T15:16:25;2.33;;;0.88;;
79583;SDS011;69053;57.338;18.700;2023-07-31T15:19:53;4.03;;;1.10;;
79583;SDS011;69053;57.338;18.700;2023-07-31T15:30:26;3.22;;;1.02;;
79583;SDS011;69053;57.338;18.700;2023-07-31T15:33:40;5.90;;;0.98;;
79583;SDS011;69053;57.338;18.700;2023-07-31T15:37:31;2.78;;;0.65;;
79583;SDS011;69053;57.338;18.700;2023-07-31T15:40:31;2.72;;;0.73;;
79583;SDS011;69053;57.338;18.700;2023-07-31T15:43:34;4.82;;;0.90;;
79583;SDS011;69053;57.338;18.700;2023-07-31T15:46:34;2.28;;;0.80;;
79583;SDS011;69053;57.338;18.700;2023-07-31T15:49:35;5.25;;;0.90;;
79583;SDS011;69053;57.338;18.700;2023-07-31T15:52:38;2.42;;;0.98;;
79583;SDS011;69053;57.338;18.700;2023-07-31T15:55:39;3.72;;;0.98;;
79583;SDS011;69053;57.338;18.700;2023-07-31T15:58:40;10.80;;;1.92;;
79583;SDS011;69053;57.338;18.700;2023-07-31T16:01:42;4.57;;;0.70;;
79583;SDS011;69053;57.338;18.700;2023-07-31T16:04:46;5.13;;;1.10;;
79583;SDS011;69053;57.338;18.700;2023-07-31T16:07:46;2.63;;;0.85;;
79583;SDS011;69053;57.338;18.700;2023-07-31T16:10:50;3.00;;;0.95;;
79583;SDS011;69053;57.338;18.700;2023-07-31T16:13:52;4.72;;;2.00;;
79583;SDS011;69053;57.338;18.700;2023-07-31T16:16:53;4.70;;;2.03;;
79583;SDS011;69053;57.338;18.700;2023-07-31T16:20:00;3.67;;;1.50;;
79583;SDS011;69053;57.338;18.700;2023-07-31T16:23:01;2.78;;;1.02;;
79583;SDS011;69053;57.338;18.700;2023-07-31T16:26:03;4.43;;;1.10;;
79583;SDS011;69053;57.338;18.700;2023-07-31T16:29:19;3.35;;;0.90;;
79583;SDS011;69053;57.338;18.700;2023-07-31T16:32:19;2.95;;;0.90;;
79583;SDS011;69053;57.338;18.700;2023-07-31T16:35:20;3.67;;;1.00;;
79583;SDS011;69053;57.338;18.700;2023-07-31T16:38:22;3.97;;;2.05;;
79583;SDS011;69053;57.338;18.700;2023-07-31T16:41:31;2.88;;;0.80;;
79583;SDS011;69053;57.338;18.700;2023-07-31T16:44:32;2.67;;;1.13;;
79583;SDS011;69053;57.338;18.700;2023-07-31T16:47:32;2.83;;;0.70;;
79583;SDS011;69053;57.338;18.700;2023-07-31T16:50:35;4.38;;;0.90;;
79583;SDS011;69053;57.338;18.700;2023-07-31T16:53:35;6.97;;;1.30;;
79583;SDS011;69053;57.338;18.700;2023-07-31T16:56:36;4.25;;;0.80;;
79583;SDS011;69053;57.338;18.700;2023-07-31T16:59:37;4.00;;;1.02;;
79583;SDS011;69053;57.338;18.700;2023-07-31T17:02:37;2.20;;;0.90;;
79583;SDS011;69053;57.338;18.700;2023-07-31T17:05:38;3.63;;;1.15;;
79583;SDS011;69053;57.338;18.700;2023-07-31T17:08:38;4.88;;;1.00;;
79583;SDS011;69053;57.338;18.700;2023-07-31T17:11:39;3.95;;;1.10;;
79583;SDS011;69053;57.338;18.700;2023-07-31T17:14:40;2.35;;;0.80;;
79583;SDS011;69053;57.338;18.700;2023-07-31T17:17:40;3.10;;;0.98;;
79583;SDS011;69053;57.338;18.700;2023-07-31T17:20:48;3.40;;;1.10;;
79583;SDS011;69053;57.338;18.700;2023-07-31T17:23:49;1.50;;;0.80;;
79583;SDS011;69053;57.338;18.700;2023-07-31T17:26:50;3.60;;;0.80;;
79583;SDS011;69053;57.338;18.700;2023-07-31T17:29:51;2.30;;;0.68;;
79583;SDS011;69053;57.338;18.700;2023-07-31T17:32:52;5.85;;;1.23;;
79583;SDS011;69053;57.338;18.700;2023-07-31T17:35:52;3.63;;;1.02;;
79583;SDS011;69053;57.338;18.700;2023-07-31T17:38:56;2.80;;;1.00;;
79583;SDS011;69053;57.338;18.700;2023-07-31T18:04:50;4.15;;;1.30;;
79583;SDS011;69053;57.338;18.700;2023-07-31T18:07:51;2.97;;;1.20;;
79583;SDS011;69053;57.338;18.700;2023-07-31T18:10:52;1.83;;;1.00;;
79583;SDS011;69053;57.338;18.700;2023-07-31T18:13:53;3.50;;;1.10;;
79583;SDS011;69053;57.338;18.700;2023-07-31T18:16:53;3.95;;;1.27;;
79583;SDS011;69053;57.338;18.700;2023-07-31T18:19:54;5.22;;;1.10;;
79583;SDS011;69053;57.338;18.700;2023-07-31T18:22:55;3.83;;;1.08;;
79583;SDS011;69053;57.338;18.700;2023-07-31T18:25:55;2.90;;;1.23;;
79583;SDS011;69053;57.338;18.700;2023-07-31T18:29:09;5.03;;;1.13;;
79583;SDS011;69053;57.338;18.700;2023-07-31T18:32:10;4.68;;;1.45;;
79583;SDS011;69053;57.338;18.700;2023-07-31T18:35:12;4.68;;;1.30;;
79583;SDS011;69053;57.338;18.700;2023-07-31T18:38:17;3.75;;;1.42;;
79583;SDS011;69053;57.338;18.700;2023-07-31T18:41:17;4.45;;;1.27;;
79583;SDS011;69053;57.338;18.700;2023-07-31T18:44:18;3.42;;;1.30;;
79583;SDS011;69053;57.338;18.700;2023-07-31T18:47:19;3.63;;;1.20;;
79583;SDS011;69053;57.338;18.700;2023-07-31T18:50:23;2.63;;;1.10;;
79583;SDS011;69053;57.338;18.700;2023-07-31T18:53:27;3.28;;;1.10;;
79583;SDS011;69053;57.338;18.700;2023-07-31T18:56:28;6.55;;;1.50;;
79583;SDS011;69053;57.338;18.700;2023-07-31T18:59:28;4.95;;;1.27;;
79583;SDS011;69053;57.338;18.700;2023-07-31T19:02:29;3.70;;;1.45;;
79583;SDS011;69053;57.338;18.700;2023-07-31T19:05:30;5.50;;;1.75;;
79583;SDS011;69053;57.338;18.700;2023-07-31T19:08:31;3.67;;;1.30;;
79583;SDS011;69053;57.338;18.700;2023-07-31T19:11:32;5.60;;;1.55;;
79583;SDS011;69053;57.338;18.700;2023-07-31T19:14:39;4.15;;;1.42;;
79583;SDS011;69053;57.338;18.700;2023-07-31T19:17:42;5.47;;;1.63;;
79583;SDS011;69053;57.338;18.700;2023-07-31T19:20:58;11.40;;;1.80;;
79583;SDS011;69053;57.338;18.700;2023-07-31T19:24:25;4.38;;;1.30;;
79583;SDS011;69053;57.338;18.700;2023-07-31T19:27:33;4.55;;;1.10;;
79583;SDS011;69053;57.338;18.700;2023-07-31T19:40:40;2.95;;;0.82;;
79583;SDS011;69053;57.338;18.700;2023-07-31T19:43:45;1.40;;;0.80;;
79583;SDS011;69053;57.338;18.700;2023-07-31T19:46:46;2.63;;;0.80;;
79583;SDS011;69053;57.338;18.700;2023-07-31T19:49:46;2.80;;;0.85;;
79583;SDS011;69053;57.338;18.700;2023-07-31T19:52:47;3.20;;;0.75;;
79583;SDS011;69053;57.338;18.700;2023-07-31T19:55:48;3.45;;;1.05;;
79583;SDS011;69053;57.338;18.700;2023-07-31T19:58:50;2.03;;;0.98;;
79583;SDS011;69053;57.338;18.700;2023-07-31T20:01:51;3.20;;;0.70;;
79583;SDS011;69053;57.338;18.700;2023-07-31T20:04:51;3.17;;;1.00;;
79583;SDS011;69053;57.338;18.700;2023-07-31T20:07:52;2.92;;;1.00;;
79583;SDS011;69053;57.338;18.700;2023-07-31T20:10:53;3.53;;;1.30;;
79583;SDS011;69053;57.338;18.700;2023-07-31T20:13:53;3.67;;;1.17;;
79583;SDS011;69053;57.338;18.700;2023-07-31T20:16:54;4.95;;;1.50;;
79583;SDS011;69053;57.338;18.700;2023-07-31T20:23:23;4.70;;;1.45;;
79583;SDS011;69053;57.338;18.700;2023-07-31T20:26:25;6.15;;;1.55;;
79583;SDS011;69053;57.338;18.700;2023-07-31T20:29:28;4.10;;;0.98;;
79583;SDS011;69053;57.338;18.700;2023-07-31T20:32:34;2.90;;;0.77;;
79583;SDS011;69053;57.338;18.700;2023-07-31T20:35:36;3.15;;;0.95;;
79583;SDS011;69053;57.338;18.700;2023-07-31T20:38:38;3.95;;;1.00;;
79583;SDS011;69053;57.338;18.700;2023-07-31T20:41:39;3.50;;;0.93;;
79583;SDS011;69053;57.338;18.700;2023-07-31T20:48:08;3.55;;;1.00;;
79583;SDS011;69053;57.338;18.700;2023-07-31T20:51:17;4.25;;;0.75;;
79583;SDS011;69053;57.338;18.700;2023-07-31T20:58:20;3.50;;;1.00;;
79583;SDS011;69053;57.338;18.700;2023-07-31T21:04:36;4.38;;;1.40;;
79583;SDS011;69053;57.338;18.700;2023-07-31T21:10:45;2.03;;;1.00;;
79583;SDS011;69053;57.338;18.700;2023-07-31T21:13:46;2.70;;;0.82;;
79583;SDS011;69053;57.338;18.700;2023-07-31T21:17:24;2.75;;;0.60;;
79583;SDS011;69053;57.338;18.700;2023-07-31T21:20:32;4.35;;;0.85;;
79583;SDS011;69053;57.338;18.700;2023-07-31T21:23:43;4.50;;;1.00;;
79583;SDS011;69053;57.338;18.700;2023-07-31T21:26:55;3.17;;;0.90;;
79583;SDS011;69053;57.338;18.700;2023-07-31T21:30:06;2.17;;;0.70;;
79583;SDS011;69053;57.338;18.700;2023-07-31T21:33:12;4.88;;;0.82;;
79583;SDS011;69053;57.338;18.700;2023-07-31T21:36:16;3.35;;;0.70;;
79583;SDS011;69053;57.338;18.700;2023-07-31T21:39:25;2.20;;;0.70;;
79583;SDS011;69053;57.338;18.700;2023-07-31T21:42:27;2.20;;;0.60;;
79583;SDS011;69053;57.338;18.700;2023-07-31T21:45:29;3.08;;;0.90;;
79583;SDS011;69053;57.338;18.700;2023-07-31T21:48:29;2.47;;;0.82;;
79583;SDS011;69053;57.338;18.700;2023-07-31T21:51:30;7.85;;;1.63;;
79583;SDS011;69053;57.338;18.700;2023-07-31T21:54:30;3.00;;;1.00;;
79583;SDS011;69053;57.338;18.700;2023-07-31T21:57:31;7.32;;;1.25;;
79583;SDS011;69053;57.338;18.700;2023-07-31T22:00:32;3.03;;;0.90;;
79583;SDS011;69053;57.338;18.700;2023-07-31T22:03:33;3.92;;;1.30;;
79583;SDS011;69053;57.338;18.700;2023-07-31T22:06:35;3.30;;;0.90;;
79583;SDS011;69053;57.338;18.700;2023-07-31T22:09:35;5.15;;;1.50;;
79583;SDS011;69053;57.338;18.700;2023-07-31T22:12:38;4.50;;;0.68;;
79583;SDS011;69053;57.338;18.700;2023-07-31T22:15:40;2.33;;;0.90;;
79583;SDS011;69053;57.338;18.700;2023-07-31T22:18:41;1.73;;;0.70;;
79583;SDS011;69053;57.338;18.700;2023-07-31T22:21:44;3.47;;;1.27;;
79583;SDS011;69053;57.338;18.700;2023-07-31T22:24:46;4.57;;;0.88;;
79583;SDS011;69053;57.338;18.700;2023-07-31T22:27:51;2.42;;;0.57;;
79583;SDS011;69053;57.338;18.700;2023-07-31T22:30:51;1.08;;;0.50;;
79583;SDS011;69053;57.338;18.700;2023-07-31T22:33:52;3.72;;;0.60;;
79583;SDS011;69053;57.338;18.700;2023-07-31T22:36:55;1.55;;;0.52;;
79583;SDS011;69053;57.338;18.700;2023-07-31T22:39:58;2.38;;;0.63;;
79583;SDS011;69053;57.338;18.700;2023-07-31T22:43:01;3.25;;;0.73;;
79583;SDS011;69053;57.338;18.700;2023-07-31T22:46:13;2.28;;;0.50;;
79583;SDS011;69053;57.338;18.700;2023-07-31T22:53:48;1.33;;;0.45;;
79583;SDS011;69053;57.338;18.700;2023-07-31T22:57:01;2.20;;;0.70;;
79583;SDS011;69053;57.338;18.700;2023-07-31T23:00:01;3.35;;;0.88;;
79583;SDS011;69053;57.338;18.700;2023-07-31T23:03:07;2.72;;;0.77;;
79583;SDS011;69053;57.338;18.700;2023-07-31T23:06:14;3.45;;;1.10;;
79583;SDS011;69053;57.338;18.700;2023-07-31T23:09:15;2.75;;;0.70;;
79583;SDS011;69053;57.338;18.700;2023-07-31T23:12:15;3.22;;;0.70;;
79583;SDS011;69053;57.338;18.700;2023-07-31T23:15:16;4.97;;;0.70;;
79583;SDS011;69053;57.338;18.700;2023-07-31T23:18:21;1.67;;;0.50;;
79583;SDS011;69053;57.338;18.700;2023-07-31T23:21:25;2.58;;;0.60;;
79583;SDS011;69053;57.338;18.700;2023-07-31T23:24:29;1.55;;;0.70;;
79583;SDS011;69053;57.338;18.700;2023-07-31T23:27:30;1.73;;;0.73;;
79583;SDS011;69053;57.338;18.700;2023-07-31T23:30:31;2.15;;;0.60;;
79583;SDS011;69053;57.338;18.700;2023-07-31T23:33:32;5.28;;;0.80;;